Overview Statistics Trail Chart Weather Telemetry Raw packets
 

This is the latest recevied weather packets stored in our database for station/object K5IDL. If no packets are shown the sender has not sent any weather packets the latest 10 day(s).

<< 102 103 104 105 106 107 108 >>
Time Temp. Humidity Pressure Rain* Wind** Luminosity Snow
1787939831 37.78° C 39% 1019.1 hPa 0 mm - 652 W/m² -
1787939531 36.67° C 39% 1019.2 hPa 0 mm - 649 W/m² -
1787939221 36.67° C 38% 1019.3 hPa 0 mm - 654 W/m² -
1787938920 36.11° C 40% 1019.4 hPa 0 mm - 650 W/m² -
1787938619 37.22° C 38% 1019.4 hPa 0 mm - 646 W/m² -
1787938316 36.67° C 42% 1019.4 hPa 0 mm - 641 W/m² -
1787938011 36.67° C 44% 1019.4 hPa 0 mm - 632 W/m² -
1787937706 36.67° C 43% 1019.6 hPa 0 mm - 627 W/m² -
1787937397 36.67° C 41% 1019.7 hPa 0 mm - 629 W/m² -
1787937093 36.67° C 44% 1019.8 hPa 0 mm - 617 W/m² -
1787936792 36.11° C 44% 1019.6 hPa 0 mm - 613 W/m² -
1787936487 36.67° C 42% 1019.7 hPa 0 mm - 607 W/m² -
1787936186 35.56° C 45% 1019.5 hPa 0 mm - 603 W/m² -
1787935881 35.56° C 46% 1019.7 hPa 0 mm - 591 W/m² -
1787935577 35° C 49% 1019.7 hPa 0 mm - 582 W/m² -
1787935273 35° C 48% 1020 hPa 0 mm - 571 W/m² -
1787934968 35° C 49% 1019.9 hPa 0 mm - 564 W/m² -
1787934664 35° C 51% 1019.8 hPa 0 mm - 553 W/m² -
1787934363 35.56° C 49% 1019.8 hPa 0 mm - 538 W/m² -
1787934062 34.44° C 52% 1019.9 hPa 0 mm - 530 W/m² -
1787933755 35.56° C 50% 1019.7 hPa 0 mm - 523 W/m² -
1787933451 34.44° C 54% 1019.8 hPa 0 mm - 512 W/m² -
1787933150 35.56° C 51% 1019.7 hPa 0 mm - 500 W/m² -
1787932845 35.56° C 52% 1019.8 hPa 0 mm - 487 W/m² -
1787932544 35° C 51% 1019.6 hPa 0 mm - 479 W/m² -

* Rain latest hour (hover to see other rain measurements)
** Current wind speed in m/s (hover to see current wind gust speed)